Time;durP1;ratioP1;P1;durP2;ratioP2;P2;SDS_P1;SDS_P2;PMS_P1;PMS_P2;Temp;Humidity;BMP_temperature;BMP_pressure;BME280_temperature;BME280_humidity;BME280_pressure;Samples;Min_cycle;Max_cycle;Signal;HPM_P1;HPM_P2
2023/01/09 00:04:20;;;;;;;46.10;26.10;;;;;;;2.54;89.35;98763.80;209468;1286;141474;-65
2023/01/09 00:09:25;;;;;;;36.50;22.20;;;;;;;2.50;89.69;98768.54;209911;1291;141318;-67
2023/01/09 00:14:28;;;;;;;35.90;21.40;;;;;;;2.45;89.61;98753.42;208767;1287;140978;-67
2023/01/09 00:19:32;;;;;;;38.20;24.70;;;;;;;2.40;89.68;98753.65;208636;1288;140233;-66
2023/01/09 00:24:37;;;;;;;40.00;24.10;;;;;;;2.35;89.89;98748.48;210421;1295;140789;-66
2023/01/09 00:29:41;;;;;;;42.20;23.00;;;;;;;2.31;89.87;98744.92;210474;1294;140967;-65
2023/01/09 00:34:43;;;;;;;38.30;24.20;;;;;;;2.30;89.76;98750.55;210491;1294;140688;-66
2023/01/09 00:39:46;;;;;;;41.20;24.10;;;;;;;2.34;90.14;98756.17;210686;1295;141922;-68
2023/01/09 00:44:58;;;;;;;42.20;24.60;;;;;;;2.42;90.27;98753.98;208374;1285;141736;-63
2023/01/09 00:50:07;;;;;;;43.20;25.30;;;;;;;2.41;89.65;98745.16;209898;1285;140520;-65
2023/01/09 00:55:12;;;;;;;46.10;26.20;;;;;;;2.33;89.55;98741.48;209661;1288;140512;-67
2023/01/09 01:00:17;;;;;;;62.80;29.70;;;;;;;2.26;89.69;98748.13;208194;1294;140073;-64
2023/01/09 01:10:45;;;;;;;59.90;30.10;;;;;;;2.18;89.88;98747.19;208436;1285;140307;-64
2023/01/09 01:15:48;;;;;;;46.80;22.30;;;;;;;2.24;90.21;98747.60;207691;1285;140557;-65
2023/01/09 01:20:52;;;;;;;49.10;30.10;;;;;;;2.22;89.88;98743.48;209043;1295;143565;-64
2023/01/09 01:25:56;;;;;;;41.30;25.40;;;;;;;2.21;89.89;98747.04;209068;1290;141297;-63
2023/01/09 01:30:59;;;;;;;35.50;19.20;;;;;;;2.21;89.77;98740.84;208402;1294;141315;-67
2023/01/09 01:36:07;;;;;;;43.10;24.20;;;;;;;2.18;89.85;98740.52;208194;1285;141701;-65
2023/01/09 01:41:13;;;;;;;34.60;19.90;;;;;;;2.17;89.81;98739.64;209489;1286;140436;-65
2023/01/09 01:46:17;;;;;;;45.20;23.50;;;;;;;2.12;89.89;98732.63;209080;1291;140583;-66
2023/01/09 01:51:23;;;;;;;34.60;23.00;;;;;;;2.16;90.21;98734.66;208949;1294;141113;-67
2023/01/09 01:56:37;;;;;;;39.90;23.50;;;;;;;2.23;90.25;98724.86;209018;1294;141055;-65
2023/01/09 02:01:44;;;;;;;36.10;21.90;;;;;;;2.30;90.31;98718.18;209378;1284;140366;-65
2023/01/09 02:06:53;;;;;;;39.50;23.80;;;;;;;2.27;90.32;98712.13;209875;1294;219360;-65
2023/01/09 02:11:57;;;;;;;36.10;21.30;;;;;;;2.29;90.27;98707.55;209248;1294;141516;-66
2023/01/09 02:17:47;;;;;;;36.80;20.50;;;;;;;2.31;90.30;98705.67;208066;1294;140230;-66
2023/01/09 02:23:15;;;;;;;31.80;20.10;;;;;;;2.36;90.74;98702.23;210302;1302;140899;-66
2023/01/09 02:28:36;;;;;;;38.40;22.10;;;;;;;2.45;90.76;98689.77;210720;1294;142281;-65
2023/01/09 02:34:08;;;;;;;30.50;18.30;;;;;;;2.53;90.50;98687.23;210739;1293;141514;-65
2023/01/09 02:39:15;;;;;;;38.70;21.10;;;;;;;2.55;90.26;98679.61;209548;1290;141220;-65
2023/01/09 02:44:26;;;;;;;30.00;18.70;;;;;;;2.56;90.59;98666.98;209033;1286;139550;-66
2023/01/09 02:49:31;;;;;;;36.70;21.00;;;;;;;2.52;90.51;98662.99;209179;1286;139910;-67
2023/01/09 02:54:47;;;;;;;33.60;21.20;;;;;;;2.50;90.48;98655.19;209224;1285;140093;-67
2023/01/09 02:59:59;;;;;;;31.50;19.40;;;;;;;2.50;90.35;98652.23;209715;1292;141005;-67
2023/01/09 03:05:11;;;;;;;32.20;20.70;;;;;;;2.49;90.01;98647.87;208199;1284;140106;-65
2023/01/09 03:10:21;;;;;;;34.90;22.70;;;;;;;2.49;90.38;98633.41;208369;1286;139593;-64
2023/01/09 03:15:31;;;;;;;31.70;21.20;;;;;;;2.44;90.26;98628.34;208317;1294;140276;-64
2023/01/09 03:20:36;;;;;;;42.70;22.20;;;;;;;2.43;90.24;98628.74;208909;1294;139540;-65
2023/01/09 03:25:39;;;;;;;33.50;18.90;;;;;;;2.47;90.18;98628.29;208493;1292;140577;-64
2023/01/09 03:30:42;;;;;;;35.10;21.40;;;;;;;2.47;90.12;98621.29;207927;1292;229713;-63
2023/01/09 03:35:45;;;;;;;31.40;19.70;;;;;;;2.42;90.06;98617.49;208422;1286;140627;-63
2023/01/09 03:40:50;;;;;;;39.30;21.50;;;;;;;2.35;89.91;98616.51;208960;1286;139699;-63
2023/01/09 03:45:54;;;;;;;35.10;22.60;;;;;;;2.28;90.06;98623.97;208724;1278;140625;-64
2023/01/09 03:50:57;;;;;;;32.50;20.00;;;;;;;2.27;90.63;98626.16;209052;1292;140013;-64
2023/01/09 03:56:00;;;;;;;35.40;21.30;;;;;;;2.31;90.30;98626.63;209866;1292;140347;-63
2023/01/09 04:01:08;;;;;;;38.80;21.60;;;;;;;2.35;90.50;98624.30;208839;1290;140921;-64
2023/01/09 04:06:12;;;;;;;34.30;21.10;;;;;;;2.39;90.45;98625.31;209996;1295;140685;-65
2023/01/09 04:11:16;;;;;;;35.30;20.10;;;;;;;2.36;90.14;98616.30;210685;1293;141533;-65
2023/01/09 04:16:20;;;;;;;34.20;20.30;;;;;;;2.33;90.18;98604.45;210519;1295;140660;-65
2023/01/09 04:21:23;;;;;;;43.20;23.30;;;;;;;2.30;90.24;98590.79;210788;1291;142539;-65
2023/01/09 04:26:25;;;;;;;66.00;30.90;;;;;;;2.33;90.22;98588.83;207924;1298;140454;-63
2023/01/09 04:31:29;;;;;;;58.90;28.10;;;;;;;2.31;90.03;98583.79;210701;1294;140804;-65
2023/01/09 04:36:36;;;;;;;41.60;20.70;;;;;;;2.26;90.12;98579.48;208673;1286;141733;-64
2023/01/09 04:41:49;;;;;;;34.20;19.20;;;;;;;2.28;90.39;98581.73;209789;1285;140912;-64
2023/01/09 04:46:54;;;;;;;33.30;20.20;;;;;;;2.30;90.05;98576.19;208599;1291;140556;-66
2023/01/09 04:51:58;;;;;;;40.70;23.30;;;;;;;2.30;90.10;98568.54;209693;1287;140871;-67
2023/01/09 04:57:01;;;;;;;31.30;21.50;;;;;;;2.35;90.49;98557.80;209008;1285;141013;-66
2023/01/09 05:02:03;;;;;;;40.40;22.30;;;;;;;2.39;90.31;98549.69;207873;1284;246795;-64
2023/01/09 05:07:06;;;;;;;40.40;24.40;;;;;;;2.39;90.53;98548.20;208258;1288;140822;-63
2023/01/09 05:12:09;;;;;;;42.40;23.10;;;;;;;2.40;90.42;98541.42;207951;1284;141973;-66
2023/01/09 05:17:13;;;;;;;37.90;21.50;;;;;;;2.38;90.41;98542.52;208251;1286;141329;-63
2023/01/09 05:22:16;;;;;;;38.40;23.30;;;;;;;2.35;90.47;98539.52;208458;1285;142251;-63
2023/01/09 05:27:19;;;;;;;36.90;23.30;;;;;;;2.36;90.84;98539.14;207892;1284;141185;-63
2023/01/09 05:32:21;;;;;;;42.60;24.00;;;;;;;2.39;90.89;98532.85;208235;1284;141640;-64
2023/01/09 05:37:23;;;;;;;32.10;20.60;;;;;;;2.42;90.88;98531.88;207520;1288;140730;-64
2023/01/09 05:42:26;;;;;;;39.10;23.30;;;;;;;2.37;90.58;98532.02;209159;1288;139588;-64
2023/01/09 05:47:30;;;;;;;37.90;21.20;;;;;;;2.36;90.80;98532.52;209132;1292;139496;-66
2023/01/09 05:52:33;;;;;;;41.70;23.30;;;;;;;2.40;90.80;98524.52;209135;1294;140639;-65
2023/01/09 05:57:36;;;;;;;42.20;25.00;;;;;;;2.42;90.89;98521.15;208038;1285;140522;-65
2023/01/09 06:02:39;;;;;;;46.80;24.80;;;;;;;2.46;91.02;98516.05;209963;1274;139870;-66
2023/01/09 06:07:43;;;;;;;38.40;25.50;;;;;;;2.52;90.84;98516.05;209243;1292;141299;-65
2023/01/09 06:12:49;;;;;;;42.40;24.00;;;;;;;2.53;90.97;98514.30;208986;1285;140332;-64
2023/01/09 06:17:54;;;;;;;41.50;24.50;;;;;;;2.56;90.97;98507.85;210705;1286;151284;-65
2023/01/09 06:22:58;;;;;;;36.80;25.80;;;;;;;2.57;90.76;98504.85;210675;1295;141139;-65
2023/01/09 06:28:00;;;;;;;41.70;25.40;;;;;;;2.55;90.91;98495.63;210747;1287;140245;-66
2023/01/09 06:33:04;;;;;;;42.00;24.10;;;;;;;2.60;90.81;98486.95;208545;1294;141450;-68
2023/01/09 06:38:07;;;;;;;41.50;24.40;;;;;;;2.63;90.65;98483.64;208033;1286;140626;-65
2023/01/09 06:43:10;;;;;;;39.00;25.90;;;;;;;2.63;90.74;98474.05;210318;1295;140063;-65
2023/01/09 06:48:13;;;;;;;40.40;25.30;;;;;;;2.62;90.95;98475.02;209268;1286;142617;-65
2023/01/09 06:53:17;;;;;;;37.20;22.10;;;;;;;2.62;90.82;98469.96;208988;1292;142067;-65
2023/01/09 06:58:20;;;;;;;42.30;22.80;;;;;;;2.61;90.57;98469.73;208734;1291;140533;-66
2023/01/09 07:03:24;;;;;;;44.50;26.80;;;;;;;2.63;90.79;98467.49;207910;1282;141355;-64
2023/01/09 07:08:27;;;;;;;38.30;23.30;;;;;;;2.60;90.73;98458.80;208302;1292;140937;-64
2023/01/09 07:13:31;;;;;;;40.60;23.80;;;;;;;2.58;90.69;98464.58;208002;1285;139484;-65
2023/01/09 07:18:34;;;;;;;42.40;24.50;;;;;;;2.59;91.09;98467.92;208247;1292;140628;-64
2023/01/09 07:23:39;;;;;;;43.40;26.50;;;;;;;2.61;91.23;98466.21;208357;1278;141425;-65
2023/01/09 07:28:43;;;;;;;38.90;25.90;;;;;;;2.62;91.41;98458.30;208951;1286;141213;-65
2023/01/09 07:33:47;;;;;;;48.60;28.70;;;;;;;2.66;91.23;98459.95;209278;1292;141724;-65
2023/01/09 07:38:50;;;;;;;48.90;28.90;;;;;;;2.71;91.38;98464.44;208995;1284;139710;-66
2023/01/09 07:43:53;;;;;;;41.50;26.00;;;;;;;2.78;91.45;98459.06;209163;1292;140333;-67
2023/01/09 07:48:56;;;;;;;47.60;28.00;;;;;;;2.87;91.50;98460.44;208380;1278;141867;-65
2023/01/09 07:53:59;;;;;;;40.00;26.70;;;;;;;2.95;91.44;98457.95;209219;1285;141083;-65
2023/01/09 07:59:02;;;;;;;47.70;28.60;;;;;;;3.02;91.36;98455.38;208629;1286;141338;-66
2023/01/09 08:04:04;;;;;;;38.90;25.00;;;;;;;3.08;91.46;98453.12;210142;1286;236855;-65
2023/01/09 08:09:07;;;;;;;40.90;24.00;;;;;;;3.15;91.33;98442.75;210521;1291;141340;-66
2023/01/09 08:14:10;;;;;;;45.80;30.60;;;;;;;3.24;91.44;98444.09;210663;1294;140461;-66
2023/01/09 08:19:12;;;;;;;40.30;23.30;;;;;;;3.32;91.44;98440.44;210569;1295;140228;-66
2023/01/09 08:24:15;;;;;;;41.90;25.20;;;;;;;3.44;91.42;98433.64;210477;1302;140686;-68
2023/01/09 08:29:18;;;;;;;35.70;19.40;;;;;;;3.54;91.05;98437.63;209846;1292;139966;-66
2023/01/09 08:34:22;;;;;;;42.10;27.30;;;;;;;3.61;91.07;98429.40;209637;1292;610435;-66
2023/01/09 08:39:25;;;;;;;44.10;28.40;;;;;;;3.67;91.13;98425.70;208745;1292;141495;-66
2023/01/09 08:49:51;;;;;;;39.40;25.30;;;;;;;3.82;91.12;98424.79;208060;1291;140727;-65
2023/01/09 08:54:53;;;;;;;48.00;29.20;;;;;;;3.82;91.23;98428.48;207972;1291;141410;-65
2023/01/09 08:59:56;;;;;;;45.10;26.60;;;;;;;3.83;91.29;98428.39;207551;1292;140863;-64
2023/01/09 09:04:59;;;;;;;42.70;27.20;;;;;;;3.85;91.35;98433.07;208279;1284;140307;-67
2023/01/09 09:10:02;;;;;;;34.40;22.50;;;;;;;3.88;91.36;98428.16;208136;1286;140981;-65
2023/01/09 09:15:15;;;;;;;40.60;25.70;;;;;;;3.92;91.50;98430.02;208424;1298;141080;-67
2023/01/09 09:20:21;;;;;;;45.40;26.70;;;;;;;3.95;91.39;98429.83;207685;1285;140404;-64
2023/01/09 09:25:26;;;;;;;50.10;29.40;;;;;;;3.99;91.76;98426.01;208522;1286;140784;-65
2023/01/09 09:30:32;;;;;;;42.50;28.30;;;;;;;4.03;91.75;98417.80;208399;1291;140082;-67
2023/01/09 09:35:36;;;;;;;44.10;25.80;;;;;;;4.07;92.04;98411.09;208635;1285;140701;-66
2023/01/09 09:40:52;;;;;;;42.20;28.80;;;;;;;4.12;92.13;98405.10;209752;1292;140917;-65
2023/01/09 09:46:01;;;;;;;46.60;28.50;;;;;;;4.24;92.18;98401.19;209164;1291;140369;-64
2023/01/09 09:51:34;;;;;;;34.90;25.80;;;;;;;4.34;92.14;98382.91;208890;1285;141121;-65
2023/01/09 09:57:02;;;;;;;41.10;26.10;;;;;;;4.41;92.26;98376.00;210356;1277;140221;-67
2023/01/09 10:02:21;;;;;;;42.80;26.60;;;;;;;4.44;92.46;98368.69;208126;1292;141730;-67
2023/01/09 10:07:34;;;;;;;38.10;22.20;;;;;;;4.49;92.27;98362.64;210796;1295;140135;-69
2023/01/09 10:12:51;;;;;;;38.80;25.80;;;;;;;4.54;92.29;98359.64;210473;1291;140986;-68
2023/01/09 10:17:59;;;;;;;36.30;22.20;;;;;;;4.60;92.37;98345.34;210656;1302;142088;-63
2023/01/09 10:23:02;;;;;;;;;;;;;;;4.65;92.15;98338.55;208847;1292;140226;-68
2023/01/09 10:28:35;;;;;;;36.80;23.00;;;;;;;4.66;92.41;98324.20;208961;1292;126105;-66
2023/01/09 10:33:49;;;;;;;33.80;20.50;;;;;;;4.68;92.72;98310.32;208951;1293;140462;-69
2023/01/09 10:38:58;;;;;;;40.40;21.90;;;;;;;4.74;92.70;98303.32;208734;1284;140555;-66
2023/01/09 10:44:20;;;;;;;30.50;20.70;;;;;;;4.82;92.82;98298.05;208247;1284;231853;-69
2023/01/09 10:49:24;;;;;;;34.40;20.80;;;;;;;4.86;93.03;98288.23;209876;1301;140720;-67
2023/01/09 10:54:28;;;;;;;31.00;20.40;;;;;;;4.94;93.14;98286.88;208499;1284;150696;-71
2023/01/09 10:59:32;;;;;;;28.50;18.80;;;;;;;4.99;92.94;98280.12;208040;1279;140780;-68
2023/01/09 11:04:38;;;;;;;27.10;17.30;;;;;;;5.03;92.97;98277.39;207428;1301;140794;-68
2023/01/09 11:10:01;;;;;;;30.00;20.80;;;;;;;5.04;93.03;98273.79;208053;1284;140820;-66
2023/01/09 11:15:30;;;;;;;22.50;15.60;;;;;;;5.11;93.17;98269.60;208090;1279;140990;-66
2023/01/09 11:20:36;;;;;;;24.40;16.50;;;;;;;5.17;93.39;98261.84;209034;1287;140350;-66
2023/01/09 11:25:52;;;;;;;26.80;17.60;;;;;;;5.26;93.70;98259.19;207950;1286;140884;-67
2023/01/09 11:30:59;;;;;;;23.00;15.00;;;;;;;5.40;93.97;98256.28;207997;1292;141911;-66
2023/01/09 11:36:13;;;;;;;26.60;17.60;;;;;;;5.48;94.31;98255.63;209128;1278;140495;-65
2023/01/09 11:41:21;;;;;;;24.30;17.50;;;;;;;5.54;94.17;98256.61;209502;1291;140398;-66
2023/01/09 11:46:42;;;;;;;22.50;14.40;;;;;;;5.59;94.09;98252.91;208861;1297;141972;-66
2023/01/09 11:52:10;;;;;;;25.50;15.20;;;;;;;5.69;93.95;98245.84;209546;1296;140753;-66
2023/01/09 11:57:14;;;;;;;;;;;;;;;5.80;94.13;98244.54;207896;1285;140570;-65
2023/01/09 12:03:13;;;;;;;20.00;13.90;;;;;;;5.83;93.81;98239.54;211123;1298;127370;-66
2023/01/09 12:08:36;;;;;;;26.80;16.80;;;;;;;5.89;93.81;98230.18;208917;1291;141430;-66
2023/01/09 12:14:15;;;;;;;25.00;15.40;;;;;;;5.97;93.83;98228.44;210549;1298;140506;-67
2023/01/09 12:19:47;;;;;;;21.50;16.10;;;;;;;6.09;93.90;98231.58;208261;1291;141733;-66
2023/01/09 12:25:22;;;;;;;13.40;9.80;;;;;;;6.23;94.09;98230.14;208551;1301;141203;-65
2023/01/09 12:30:52;;;;;;;22.90;16.00;;;;;;;6.31;93.63;98231.69;208190;1292;141159;-68
2023/01/09 12:36:19;;;;;;;19.90;13.50;;;;;;;6.43;94.21;98230.52;208516;1287;141169;-66
2023/01/09 12:41:49;;;;;;;23.10;13.30;;;;;;;6.55;94.55;98232.27;207861;1284;140580;-68
2023/01/09 12:47:15;;;;;;;21.00;13.40;;;;;;;6.64;93.90;98229.69;208874;1291;140517;-67
2023/01/09 12:52:27;;;;;;;18.40;14.00;;;;;;;6.71;94.06;98236.77;208329;1292;140425;-66
2023/01/09 12:57:36;;;;;;;20.80;12.90;;;;;;;6.83;94.50;98236.95;208881;1300;234869;-65
2023/01/09 13:02:57;;;;;;;17.30;12.60;;;;;;;6.86;94.08;98233.33;208040;1291;139471;-66
2023/01/09 13:08:23;;;;;;;20.10;13.40;;;;;;;6.88;94.18;98233.73;208055;1289;223983;-66
2023/01/09 13:13:53;;;;;;;22.30;13.70;;;;;;;6.87;94.26;98229.91;209034;1291;139949;-65
2023/01/09 13:19:12;;;;;;;18.60;12.50;;;;;;;6.89;93.72;98230.30;207860;1298;141316;-66
2023/01/09 13:24:47;;;;;;;18.50;13.40;;;;;;;6.93;94.29;98235.86;208517;1288;141699;-66
2023/01/09 13:29:57;;;;;;;19.00;12.50;;;;;;;7.00;93.95;98235.58;208972;1298;143290;-66
2023/01/09 13:35:01;;;;;;;19.10;12.00;;;;;;;7.04;94.14;98231.95;208695;1287;140857;-66
2023/01/09 13:40:06;;;;;;;24.70;14.60;;;;;;;7.13;94.35;98233.27;209091;1293;140600;-67
2023/01/09 13:45:27;;;;;;;19.80;13.10;;;;;;;7.23;94.00;98241.12;209062;1286;140436;-67
2023/01/09 13:50:31;;;;;;;17.80;13.80;;;;;;;7.32;94.13;98253.89;210759;1296;141812;-67
2023/01/09 13:55:35;;;;;;;21.40;13.20;;;;;;;7.34;94.02;98262.90;210758;1298;222957;-67
2023/01/09 14:00:40;;;;;;;19.70;12.80;;;;;;;7.37;93.20;98265.64;210503;1295;142512;-66
2023/01/09 14:05:48;;;;;;;23.00;13.90;;;;;;;7.30;93.01;98272.42;210521;1287;222348;-66
2023/01/09 14:10:56;;;;;;;14.00;11.20;;;;;;;7.29;93.10;98276.97;207875;1293;141312;-66
2023/01/09 14:16:07;;;;;;;14.70;11.60;;;;;;;7.31;92.80;98282.71;210439;1298;142239;-66
2023/01/09 14:21:12;;;;;;;13.40;10.10;;;;;;;7.32;92.81;98291.58;209874;1295;236714;-66
2023/01/09 14:26:20;;;;;;;17.30;11.40;;;;;;;7.36;92.92;98293.66;208592;1293;140976;-66
2023/01/09 14:31:39;;;;;;;19.20;14.40;;;;;;;7.36;93.21;98303.26;208155;1292;139904;-67
2023/01/09 14:36:44;;;;;;;18.50;14.10;;;;;;;7.33;92.74;98311.55;208575;1284;141116;-67
2023/01/09 14:42:05;;;;;;;18.70;12.00;;;;;;;7.24;92.54;98315.08;208687;1289;140881;-67
2023/01/09 14:47:29;;;;;;;25.20;13.40;;;;;;;7.20;92.28;98319.64;207745;1294;162013;-67
2023/01/09 14:53:16;;;;;;;21.70;14.40;;;;;;;7.17;92.21;98318.70;207819;1300;143608;-66
2023/01/09 14:58:25;;;;;;;16.70;13.80;;;;;;;7.13;92.22;98325.09;208648;1299;142690;-67
2023/01/09 15:03:41;;;;;;;17.30;14.80;;;;;;;7.16;92.48;98323.88;207775;1284;141255;-67
2023/01/09 15:08:57;;;;;;;19.90;14.50;;;;;;;7.21;92.55;98337.67;208715;1291;140722;-67
2023/01/09 15:14:01;;;;;;;21.50;13.40;;;;;;;7.22;92.44;98339.70;207826;1292;140152;-67
2023/01/09 15:19:08;;;;;;;22.30;14.70;;;;;;;7.19;92.33;98350.73;207863;1294;142024;-67
2023/01/09 15:24:28;;;;;;;20.00;14.10;;;;;;;7.20;92.64;98358.95;208452;1292;143647;-66
2023/01/09 15:29:32;;;;;;;24.10;14.20;;;;;;;7.20;92.55;98367.60;208278;1284;141216;-67
2023/01/09 15:34:38;;;;;;;22.50;12.70;;;;;;;7.14;91.98;98383.11;210446;1287;140869;-67
2023/01/09 15:39:42;;;;;;;21.30;12.20;;;;;;;7.09;92.07;98390.52;208780;1300;141841;-67
2023/01/09 15:44:49;;;;;;;18.00;12.80;;;;;;;7.11;91.93;98401.34;207930;1289;143380;-66
2023/01/09 15:49:55;;;;;;;16.80;11.30;;;;;;;7.11;91.61;98403.73;209783;1300;140442;-66
2023/01/09 15:55:00;;;;;;;16.80;11.10;;;;;;;7.07;91.39;98408.71;209548;1291;140036;-65
2023/01/09 16:00:40;;;;;;;15.00;10.00;;;;;;;6.98;91.51;98420.64;210725;1295;139732;-67
2023/01/09 16:06:07;;;;;;;15.90;11.70;;;;;;;6.93;91.17;98434.96;209330;1292;226082;-67
2023/01/09 16:11:23;;;;;;;14.20;10.50;;;;;;;6.89;91.24;98438.35;208682;1291;140563;-69
2023/01/09 16:16:32;;;;;;;15.60;10.80;;;;;;;6.87;91.00;98436.98;209090;1286;141417;-67
2023/01/09 16:21:37;;;;;;;14.70;10.90;;;;;;;6.84;90.96;98443.41;208427;1278;141494;-68
2023/01/09 16:26:41;;;;;;;18.60;11.90;;;;;;;6.81;91.30;98447.92;209689;1293;140953;-67
2023/01/09 16:31:45;;;;;;;16.30;10.90;;;;;;;6.79;90.66;98449.52;208712;1293;140098;-68
2023/01/09 16:36:47;;;;;;;15.80;10.00;;;;;;;6.71;90.36;98454.07;207612;1292;139923;-67
2023/01/09 16:47:14;;;;;;;21.00;12.40;;;;;;;6.52;90.18;98452.26;208773;1288;225990;-67
2023/01/09 16:52:17;;;;;;;19.80;13.10;;;;;;;6.52;90.32;98449.23;207942;1285;142302;-67
2023/01/09 16:57:23;;;;;;;18.60;12.30;;;;;;;6.54;90.16;98451.02;207980;1294;140302;-67
2023/01/09 17:02:29;;;;;;;19.90;13.70;;;;;;;6.49;90.06;98466.45;208322;1294;140941;-67
2023/01/09 17:07:37;;;;;;;21.60;12.70;;;;;;;6.48;90.51;98472.83;207684;1285;140304;-67
2023/01/09 17:12:46;;;;;;;23.50;13.70;;;;;;;6.50;90.68;98476.90;208750;1285;141079;-67
2023/01/09 17:17:59;;;;;;;20.60;11.80;;;;;;;6.54;90.43;98479.92;207850;1291;139332;-67
2023/01/09 17:23:05;;;;;;;27.10;15.70;;;;;;;6.51;90.23;98488.61;208556;1291;245424;-67
2023/01/09 17:28:32;;;;;;;21.10;14.40;;;;;;;6.46;90.42;98499.13;208322;1293;141141;-66
2023/01/09 17:33:40;;;;;;;27.20;16.60;;;;;;;6.42;90.09;98500.64;209490;1289;141296;-68
2023/01/09 17:38:43;;;;;;;27.90;16.20;;;;;;;6.47;90.35;98510.79;209223;1295;140864;-67
2023/01/09 17:43:47;;;;;;;23.90;15.30;;;;;;;6.52;90.41;98525.77;208025;1284;140303;-67
2023/01/09 17:48:57;;;;;;;28.30;16.90;;;;;;;6.50;90.31;98530.16;207693;1292;236578;-67
2023/01/09 17:54:00;;;;;;;28.00;17.60;;;;;;;6.51;89.99;98536.22;210513;1293;142698;-67
2023/01/09 17:59:06;;;;;;;27.70;16.20;;;;;;;6.53;90.48;98545.52;209659;1295;141545;-66
2023/01/09 18:04:11;;;;;;;34.70;19.20;;;;;;;6.56;90.26;98556.71;210621;1293;140654;-67
2023/01/09 18:09:16;;;;;;;30.00;17.60;;;;;;;6.55;89.95;98559.70;210695;1302;140004;-67
2023/01/09 18:14:23;;;;;;;29.80;19.10;;;;;;;6.49;89.53;98565.73;209550;1295;141410;-66
2023/01/09 18:19:34;;;;;;;30.70;18.20;;;;;;;6.49;89.43;98576.46;208616;1291;141208;-66
2023/01/09 18:24:40;;;;;;;32.60;23.10;;;;;;;6.47;90.12;98583.01;207754;1284;141312;-67
2023/01/09 18:29:46;;;;;;;34.00;20.30;;;;;;;6.45;89.88;98586.09;207914;1288;139683;-67
2023/01/09 18:34:54;;;;;;;33.50;19.30;;;;;;;6.45;89.99;98592.22;208680;1292;140060;-67
2023/01/09 18:40:01;;;;;;;30.30;19.00;;;;;;;6.48;89.87;98599.05;208083;1300;141300;-68
2023/01/09 18:45:07;;;;;;;27.40;17.40;;;;;;;6.49;90.12;98611.68;207777;1286;140622;-66
2023/01/09 18:50:14;;;;;;;30.80;18.00;;;;;;;6.40;89.58;98619.70;208342;1293;141161;-67
2023/01/09 18:55:18;;;;;;;32.20;20.60;;;;;;;6.36;89.73;98622.80;208126;1292;142250;-67
2023/01/09 19:00:21;;;;;;;32.10;19.50;;;;;;;6.36;90.00;98631.26;208601;1292;142923;-67
2023/01/09 19:05:25;;;;;;;32.30;17.60;;;;;;;6.36;89.99;98628.98;208089;1285;140087;-67
2023/01/09 19:10:30;;;;;;;26.90;16.10;;;;;;;6.37;90.44;98636.37;208184;1294;140489;-67
2023/01/09 19:15:34;;;;;;;31.30;18.60;;;;;;;6.40;89.93;98628.95;208604;1293;142826;-66
2023/01/09 19:20:38;;;;;;;21.40;14.80;;;;;;;6.38;89.76;98626.73;209347;1292;140720;-66
2023/01/09 19:25:42;;;;;;;25.90;17.70;;;;;;;6.34;89.71;98619.52;207996;1284;155221;-67
2023/01/09 19:30:54;;;;;;;27.60;16.50;;;;;;;6.40;90.18;98622.39;208655;1294;143930;-67
2023/01/09 19:35:59;;;;;;;29.60;17.00;;;;;;;6.47;90.08;98627.48;209462;1292;141597;-67
2023/01/09 19:41:17;;;;;;;26.30;17.30;;;;;;;6.48;90.08;98640.73;210014;1291;140565;-67
2023/01/09 19:46:24;;;;;;;28.20;17.70;;;;;;;6.52;90.04;98650.45;209786;1294;223716;-66
2023/01/09 19:51:27;;;;;;;29.00;18.00;;;;;;;6.53;89.71;98662.71;209369;1295;140216;-68
2023/01/09 19:56:42;;;;;;;30.50;17.90;;;;;;;6.55;89.84;98661.01;210645;1288;140895;-67
2023/01/09 20:01:48;;;;;;;25.70;18.00;;;;;;;6.55;90.12;98666.14;208291;1293;141320;-67
2023/01/09 20:06:52;;;;;;;31.40;20.60;;;;;;;6.53;89.48;98673.55;210635;1295;140889;-66
2023/01/09 20:11:56;;;;;;;29.10;17.60;;;;;;;6.51;89.56;98680.88;207850;1288;141212;-66
2023/01/09 20:17:03;;;;;;;33.50;19.10;;;;;;;6.53;89.43;98689.44;210007;1292;140768;-68
2023/01/09 20:22:06;;;;;;;31.70;20.10;;;;;;;6.53;89.91;98689.81;207616;1286;142012;-67
2023/01/09 20:27:11;;;;;;;22.80;16.20;;;;;;;6.50;89.75;98690.87;207853;1286;141417;-66
2023/01/09 20:32:14;;;;;;;21.30;13.40;;;;;;;6.49;89.66;98700.27;208919;1294;141487;-67
2023/01/09 20:37:18;;;;;;;27.50;18.30;;;;;;;6.51;89.43;98717.25;207776;1294;739868;-67
2023/01/09 20:42:23;;;;;;;31.80;19.10;;;;;;;6.50;89.72;98721.63;208082;1289;139640;-67
2023/01/09 20:47:27;;;;;;;29.50;17.00;;;;;;;6.50;89.90;98727.50;208791;1281;139715;-66
2023/01/09 20:52:31;;;;;;;23.70;18.10;;;;;;;6.54;89.55;98739.92;208981;1292;140833;-67
2023/01/09 20:57:37;;;;;;;27.60;20.10;;;;;;;6.55;89.57;98739.01;207785;1298;140537;-68
2023/01/09 21:02:41;;;;;;;27.30;15.80;;;;;;;6.51;89.85;98741.30;207972;1278;140497;-66
2023/01/09 21:07:45;;;;;;;25.10;17.60;;;;;;;6.50;89.59;98750.06;208363;1292;140748;-64
2023/01/09 21:12:48;;;;;;;26.60;17.50;;;;;;;6.52;89.34;98756.34;207819;1285;225792;-63
2023/01/09 21:17:52;;;;;;;27.80;16.80;;;;;;;6.54;89.73;98772.28;207748;1284;141247;-66
2023/01/09 21:22:55;;;;;;;28.30;19.90;;;;;;;6.56;89.80;98779.42;208482;1284;208177;-67
2023/01/09 21:28:01;;;;;;;28.80;16.90;;;;;;;6.58;89.70;98791.11;207469;1285;140731;-67
2023/01/09 21:33:04;;;;;;;27.50;18.10;;;;;;;6.57;89.48;98794.55;207758;1292;140904;-66
2023/01/09 21:38:07;;;;;;;25.60;16.90;;;;;;;6.55;89.47;98799.10;208880;1284;140190;-66
2023/01/09 21:48:42;;;;;;;32.20;20.40;;;;;;;6.54;89.22;98816.35;209074;1295;140393;-68
2023/01/09 21:53:45;;;;;;;26.90;18.50;;;;;;;6.59;89.68;98828.64;210756;1286;140063;-67
2023/01/09 21:58:51;;;;;;;30.40;18.30;;;;;;;6.52;88.80;98835.98;209887;1294;139863;-67
2023/01/09 22:03:55;;;;;;;21.80;16.30;;;;;;;6.43;88.61;98849.61;210235;1286;140563;-68
2023/01/09 22:08:59;;;;;;;22.90;15.00;;;;;;;6.41;88.74;98861.70;208051;1291;140120;-66
2023/01/09 22:14:02;;;;;;;25.90;16.00;;;;;;;6.42;89.01;98861.27;210749;1294;140654;-67
2023/01/09 22:19:05;;;;;;;28.10;16.00;;;;;;;6.44;88.61;98861.77;209953;1291;143589;-67
2023/01/09 22:24:13;;;;;;;25.50;17.50;;;;;;;6.50;88.84;98866.71;208721;1285;145757;-67
2023/01/09 22:29:17;;;;;;;27.00;16.90;;;;;;;6.52;88.69;98862.77;209487;1294;140978;-68
2023/01/09 22:34:20;;;;;;;27.20;17.30;;;;;;;6.51;88.70;98867.04;208162;1278;140832;-66
2023/01/09 22:39:24;;;;;;;28.30;17.00;;;;;;;6.51;88.77;98864.83;209189;1286;141731;-66
2023/01/09 22:44:26;;;;;;;26.20;16.90;;;;;;;6.51;88.61;98868.74;209539;1285;141005;-66
2023/01/09 22:49:30;;;;;;;24.60;16.50;;;;;;;6.42;87.85;98866.97;208980;1286;139955;-65
2023/01/09 22:54:48;;;;;;;23.20;16.30;;;;;;;6.39;88.59;98872.20;208527;1284;140269;-66
2023/01/09 22:59:52;;;;;;;27.40;16.50;;;;;;;6.36;88.35;98881.61;208487;1286;140127;-66
2023/01/09 23:04:57;;;;;;;23.80;16.60;;;;;;;6.37;88.36;98887.30;208469;1285;140710;-65
2023/01/09 23:10:00;;;;;;;29.60;17.60;;;;;;;6.29;88.03;98888.73;208053;1284;141357;-66
2023/01/09 23:15:04;;;;;;;28.10;18.60;;;;;;;6.18;87.64;98893.21;208953;1285;139367;-65
2023/01/09 23:20:08;;;;;;;28.00;17.30;;;;;;;6.05;87.99;98897.39;209393;1284;140290;-65
2023/01/09 23:25:13;;;;;;;25.30;15.60;;;;;;;6.05;87.83;98906.19;208098;1287;140837;-65
2023/01/09 23:30:16;;;;;;;25.00;17.50;;;;;;;6.00;88.33;98901.13;209710;1293;139992;-66
2023/01/09 23:35:19;;;;;;;31.40;20.50;;;;;;;5.93;87.95;98907.60;208536;1286;141540;-67
2023/01/09 23:40:22;;;;;;;28.20;15.90;;;;;;;5.85;87.86;98908.05;209201;1285;140525;-66
2023/01/09 23:45:25;;;;;;;25.70;17.80;;;;;;;5.73;87.29;98916.89;209738;1292;142458;-65